This is the latest recevied weather packets stored in our database for station/object SV9TNF-1. If no packets are shown the sender has not sent any weather packets the latest 10 day(s).
| Time | Temp. | Humidity | Pressure | Rain* | Wind** | Luminosity | Snow |
|---|---|---|---|---|---|---|---|
| 1778061327 | 26.67° C | 33% | 1005.8 hPa | 0 mm | 4.92 m/s, 103° | - | - |
| 1778061026 | 27.22° C | 31% | 1005.8 hPa | 0 mm | 0.89 m/s, 96° | - | - |
| 1778060726 | 27.22° C | 31% | 1005.8 hPa | 0 mm | 3.58 m/s, 106° | - | - |
| 1778060426 | 28.33° C | 31% | 1005.8 hPa | 0 mm | 1.34 m/s, 148° | - | - |
| 1778060126 | 28.33° C | 29% | 1005.8 hPa | 0 mm | 1.79 m/s, 119° | - | - |
| 1778059826 | 28.89° C | 31% | 1005.8 hPa | 0 mm | 0 m/s | - | - |
| 1778059526 | 28.89° C | 29% | 1005.8 hPa | 0 mm | 1.79 m/s, 116° | - | - |
| 1778059226 | 28.89° C | 26% | 1005.8 hPa | 0 mm | 1.34 m/s, 135° | - | - |
| 1778058926 | 29.44° C | 24% | 1005.8 hPa | 0 mm | 0 m/s | - | - |
| 1778058626 | 28.89° C | 26% | 1005.8 hPa | 0 mm | 1.79 m/s, 123° | - | - |
| 1778058326 | 28.33° C | 28% | 1005.8 hPa | 0 mm | 0.89 m/s, 133° | - | - |
| 1778058026 | 28.33° C | 24% | 1005.8 hPa | 0 mm | 1.79 m/s, 146° | - | - |
| 1778057725 | 27.22° C | 31% | 1005.8 hPa | 0 mm | 3.13 m/s, 133° | - | - |
| 1778057425 | 26.67° C | 33% | 1005.8 hPa | 0 mm | 4.92 m/s, 124° | - | - |
| 1778057125 | 26.67° C | 33% | 1005.8 hPa | 0 mm | 6.26 m/s, 134° | - | - |
| 1778056825 | 26.67° C | 33% | 1005.8 hPa | 0 mm | 5.36 m/s, 348° | - | - |
| 1778056525 | 25.56° C | 35% | 1005.8 hPa | 0 mm | 1.79 m/s, 129° | - | - |
| 1778056225 | 26.67° C | 34% | 1005.8 hPa | 0 mm | 0 m/s | - | - |
| 1778055925 | 25.56° C | 35% | 1005.8 hPa | 0 mm | 3.58 m/s, 334° | - | - |
| 1778055624 | 25.56° C | 35% | 1005.8 hPa | 0 mm | 2.68 m/s, 318° | - | - |
| 1778055325 | 25° C | 35% | 1005.8 hPa | 0 mm | 7.6 m/s, 329° | - | - |
| 1778055025 | 26.67° C | 34% | 1005.4 hPa | 0 mm | 0.89 m/s, 163° | - | - |
| 1778054724 | 26.11° C | 34% | 1005.4 hPa | 0 mm | 0.45 m/s, 123° | - | - |
| 1778054425 | 25.56° C | 33% | 1005.4 hPa | 0 mm | 2.24 m/s, 74° | - | - |
| 1778054124 | 25° C | 36% | 1005.4 hPa | 0 mm | 4.92 m/s, 110° | - | - |
* Rain latest hour (hover to see other rain measurements)
** Current wind speed in m/s (hover to see current wind gust speed)